Time;durP1;ratioP1;P1;durP2;ratioP2;P2;SDS_P1;SDS_P2;PMS_P1;PMS_P2;Temp;Humidity;BMP_temperature;BMP_pressure;BME280_temperature;BME280_humidity;BME280_pressure;Samples;Min_cycle;Max_cycle;Signal;HPM_P1;HPM_P2
2023/07/28 00:01:30;;;;;;;2.22;1.45;;;17.70;99.90;;;;;;5050053;28;20209;-52
2023/07/28 00:03:57;;;;;;;3.55;1.67;;;17.70;99.90;;;;;;5051182;28;20166;-52
2023/07/28 00:06:23;;;;;;;1.40;1.30;;;17.50;99.90;;;;;;5050108;28;20166;-50
2023/07/28 00:08:48;;;;;;;4.07;1.60;;;17.70;99.90;;;;;;5051684;28;20182;-52
2023/07/28 00:11:15;;;;;;;2.22;1.40;;;17.70;99.90;;;;;;5051006;28;20249;-51
2023/07/28 00:13:41;;;;;;;2.08;1.50;;;17.80;99.90;;;;;;5051141;28;20167;-51
2023/07/28 00:16:08;;;;;;;1.70;1.60;;;17.50;99.90;;;;;;5051305;28;20214;-52
2023/07/28 00:18:34;;;;;;;4.78;1.88;;;17.70;99.90;;;;;;5049849;28;20204;-51
2023/07/28 00:21:00;;;;;;;1.33;1.10;;;17.80;99.90;;;;;;5051098;28;20217;-51
2023/07/28 00:23:25;;;;;;;2.05;1.25;;;17.70;99.90;;;;;;5051362;28;20521;-51
2023/07/28 00:25:51;;;;;;;3.17;1.70;;;17.60;99.90;;;;;;5051376;28;20175;-47
2023/07/28 00:28:17;;;;;;;2.22;1.67;;;17.60;99.90;;;;;;5050363;28;20167;-51
2023/07/28 00:30:42;;;;;;;2.45;1.60;;;17.60;99.90;;;;;;5050988;28;20201;-51
2023/07/28 00:33:08;;;;;;;3.22;1.50;;;17.60;99.90;;;;;;5051005;28;20653;-51
2023/07/28 00:35:34;;;;;;;1.27;1.17;;;17.50;99.90;;;;;;5050866;28;20212;-51
2023/07/28 00:37:59;;;;;;;2.20;2.00;;;17.80;99.90;;;;;;5050927;28;20228;-49
2023/07/28 00:40:25;;;;;;;2.00;1.58;;;17.80;99.90;;;;;;5052165;28;20167;-50
2023/07/28 00:42:50;;;;;;;2.60;1.58;;;17.60;99.90;;;;;;5055032;28;20174;-50
2023/07/28 00:45:16;;;;;;;1.85;1.50;;;19.00;99.90;;;;;;5054993;28;20171;-51
2023/07/28 00:47:42;;;;;;;2.75;1.90;;;17.70;99.90;;;;;;5054594;28;20167;-51
2023/07/28 00:50:11;;;;;;;3.65;1.60;;;17.80;99.90;;;;;;5054553;28;20159;-47
2023/07/28 00:52:38;;;;;;;2.50;1.50;;;17.70;99.90;;;;;;5054721;28;20175;-47
2023/07/28 00:55:05;;;;;;;2.47;1.60;;;17.70;99.90;;;;;;5054652;28;20225;-47
2023/07/28 00:57:31;;;;;;;4.03;1.70;;;17.70;99.90;;;;;;5054509;28;20163;-47
2023/07/28 00:59:57;;;;;;;1.85;1.50;;;17.70;99.90;;;;;;5053149;28;20173;-48
2023/07/28 01:02:23;;;;;;;1.85;1.40;;;17.60;99.90;;;;;;5054631;28;20216;-47
2023/07/28 01:04:49;;;;;;;3.03;1.80;;;17.70;99.90;;;;;;5053451;28;20194;-47
2023/07/28 01:07:30;;;;;;;2.95;1.50;;;17.80;99.90;;;;;;5054342;28;20171;-47
2023/07/28 01:10:16;;;;;;;3.20;1.60;;;17.80;99.90;;;;;;5054257;28;20173;-47
2023/07/28 01:12:41;;;;;;;2.03;1.58;;;17.80;99.90;;;;;;5053926;28;20214;-47
2023/07/28 01:15:07;;;;;;;3.33;1.40;;;17.80;99.90;;;;;;5054220;28;20602;-47
2023/07/28 01:17:32;;;;;;;4.75;2.33;;;17.80;99.90;;;;;;5054022;28;20197;-47
2023/07/28 01:19:58;;;;;;;4.78;1.80;;;17.70;99.90;;;;;;5054023;28;20183;-47
2023/07/28 01:22:27;;;;;;;2.47;1.33;;;17.60;99.90;;;;;;5054308;28;20167;-47
2023/07/28 01:25:04;;;;;;;3.83;1.63;;;17.80;99.90;;;;;;5053859;28;20591;-47
2023/07/28 01:27:31;;;;;;;2.90;1.55;;;17.70;99.90;;;;;;5053978;28;20630;-47
2023/07/28 01:29:56;;;;;;;2.20;1.70;;;17.60;99.90;;;;;;5053812;28;20527;-47
2023/07/28 01:32:22;;;;;;;4.07;1.83;;;17.70;99.90;;;;;;5053867;28;20162;-47
2023/07/28 01:34:48;;;;;;;4.28;1.70;;;17.50;99.90;;;;;;5054024;28;20206;-47
2023/07/28 01:37:13;;;;;;;7.15;2.05;;;17.50;99.90;;;;;;5053718;28;20685;-47
2023/07/28 01:39:39;;;;;;;5.63;2.25;;;17.70;99.90;;;;;;5053605;28;20190;-48
2023/07/28 01:42:04;;;;;;;4.28;1.73;;;17.70;99.90;;;;;;5053643;28;20538;-47
2023/07/28 01:44:30;;;;;;;2.40;1.67;;;17.60;99.90;;;;;;5053632;28;20548;-48
2023/07/28 01:46:55;;;;;;;2.75;1.50;;;17.50;99.90;;;;;;5053743;28;20171;-47
2023/07/28 01:49:21;;;;;;;2.55;1.50;;;17.50;99.90;;;;;;5053410;28;20635;-47
2023/07/28 01:51:46;;;;;;;1.90;1.80;;;17.60;99.90;;;;;;5053263;28;20179;-47
2023/07/28 01:54:12;;;;;;;2.20;1.80;;;17.60;99.90;;;;;;5053425;28;20167;-47
2023/07/28 01:56:38;;;;;;;8.95;2.00;;;17.60;99.90;;;;;;5053185;28;20210;-47
2023/07/28 01:59:03;;;;;;;5.88;1.92;;;17.60;99.90;;;;;;5053328;28;20254;-47
2023/07/28 02:01:29;;;;;;;5.30;2.08;;;17.60;99.90;;;;;;5053290;28;20260;-48
2023/07/28 02:03:55;;;;;;;2.53;1.80;;;17.60;99.90;;;;;;5053249;28;20277;-47
2023/07/28 02:06:20;;;;;;;4.15;2.03;;;17.50;99.90;;;;;;5053542;28;20155;-47
2023/07/28 02:08:46;;;;;;;2.90;2.13;;;17.50;99.90;;;;;;5053749;28;20259;-47
2023/07/28 02:11:11;;;;;;;2.92;1.92;;;17.50;99.90;;;;;;5053155;28;20236;-48
2023/07/28 02:13:37;;;;;;;4.00;2.13;;;17.40;99.90;;;;;;5052962;28;20175;-47
2023/07/28 02:16:02;;;;;;;5.78;2.00;;;17.50;99.90;;;;;;5053031;28;20236;-48
2023/07/28 02:18:28;;;;;;;6.45;2.28;;;17.40;99.90;;;;;;5052850;28;20194;-48
2023/07/28 02:20:53;;;;;;;7.22;2.45;;;17.60;99.90;;;;;;5052734;28;20175;-47
2023/07/28 02:23:19;;;;;;;4.45;2.00;;;17.60;99.90;;;;;;5053388;28;20175;-48
2023/07/28 02:25:45;;;;;;;3.80;2.03;;;17.70;99.90;;;;;;5052766;28;20177;-46
2023/07/28 02:28:11;;;;;;;3.78;1.80;;;17.60;99.90;;;;;;5052578;28;20166;-47
2023/07/28 02:30:37;;;;;;;3.70;2.10;;;17.70;99.90;;;;;;5052587;28;20182;-47
2023/07/28 02:33:03;;;;;;;7.03;2.00;;;17.40;99.90;;;;;;5052358;28;20163;-47
2023/07/28 02:35:28;;;;;;;3.65;2.00;;;17.50;99.90;;;;;;5052333;28;20209;-48
2023/07/28 02:37:54;;;;;;;5.55;2.22;;;17.70;99.90;;;;;;5052543;28;20162;-47
2023/07/28 02:40:19;;;;;;;6.57;2.85;;;17.50;99.90;;;;;;5052767;28;20257;-48
2023/07/28 02:42:45;;;;;;;7.88;2.00;;;17.70;99.90;;;;;;5052419;28;20170;-47
2023/07/28 02:45:10;;;;;;;4.60;2.30;;;17.70;99.90;;;;;;5052324;28;20173;-47
2023/07/28 02:47:36;;;;;;;2.60;2.00;;;17.40;99.90;;;;;;5052335;28;20174;-47
2023/07/28 02:50:02;;;;;;;9.23;2.20;;;17.60;99.90;;;;;;5052365;28;20190;-48
2023/07/28 02:52:28;;;;;;;3.40;1.80;;;17.50;99.90;;;;;;5052512;28;20197;-48
2023/07/28 02:54:54;;;;;;;6.68;1.75;;;17.50;99.90;;;;;;5052335;28;20670;-47
2023/07/28 02:57:19;;;;;;;5.05;2.40;;;17.50;99.90;;;;;;5052584;28;20169;-47
2023/07/28 02:59:45;;;;;;;5.47;1.90;;;17.60;99.90;;;;;;5052043;28;20171;-47
2023/07/28 03:02:10;;;;;;;4.13;2.17;;;17.70;99.90;;;;;;5052056;28;20173;-47
2023/07/28 03:04:36;;;;;;;6.00;2.00;;;17.60;99.90;;;;;;5050698;28;20258;-48
2023/07/28 03:07:02;;;;;;;7.82;2.00;;;17.70;99.90;;;;;;5052173;28;20168;-47
2023/07/28 03:09:27;;;;;;;4.28;1.88;;;17.70;99.90;;;;;;5052255;28;20175;-47
2023/07/28 03:11:53;;;;;;;3.08;1.60;;;17.60;99.90;;;;;;5051730;28;20259;-48
2023/07/28 03:14:18;;;;;;;3.83;2.15;;;17.70;99.90;;;;;;5052304;28;20171;-47
2023/07/28 03:16:44;;;;;;;6.68;2.28;;;17.70;99.90;;;;;;5052125;28;20201;-48
2023/07/28 03:19:09;;;;;;;3.53;2.08;;;17.60;99.90;;;;;;5051887;28;20706;-49
2023/07/28 03:21:35;;;;;;;3.53;1.80;;;17.70;99.90;;;;;;5050481;28;20175;-48
2023/07/28 03:24:01;;;;;;;5.45;1.92;;;17.80;99.90;;;;;;5051766;28;20174;-50
2023/07/28 03:26:26;;;;;;;6.22;2.10;;;17.60;99.90;;;;;;5051937;28;20260;-49
2023/07/28 03:28:52;;;;;;;4.10;1.90;;;17.50;99.90;;;;;;5051635;28;20166;-47
2023/07/28 03:31:17;;;;;;;3.22;2.10;;;17.60;99.90;;;;;;5052128;28;20166;-47
2023/07/28 03:33:43;;;;;;;3.45;2.22;;;17.70;99.90;;;;;;5051584;28;20190;-52
2023/07/28 03:36:09;;;;;;;8.52;2.28;;;17.80;99.90;;;;;;5051635;28;20232;-52
2023/07/28 03:38:34;;;;;;;6.10;2.33;;;17.60;99.90;;;;;;5051750;28;20261;-51
2023/07/28 03:41:00;;;;;;;4.03;2.70;;;17.80;99.90;;;;;;5051766;28;20174;-53
2023/07/28 03:43:25;;;;;;;2.80;2.05;;;17.50;99.90;;;;;;5051506;28;20159;-51
2023/07/28 03:45:51;;;;;;;4.70;2.10;;;17.40;99.90;;;;;;5051387;28;20167;-49
2023/07/28 03:48:17;;;;;;;4.20;2.40;;;17.50;99.90;;;;;;5051807;28;20174;-50
2023/07/28 03:50:42;;;;;;;3.72;2.08;;;17.80;99.90;;;;;;5051600;28;20167;-51
2023/07/28 03:53:08;;;;;;;5.10;2.15;;;17.60;99.90;;;;;;5051398;28;20627;-49
2023/07/28 03:55:34;;;;;;;4.38;2.10;;;17.90;99.90;;;;;;5051563;28;20214;-49
2023/07/28 03:58:00;;;;;;;2.38;1.70;;;17.50;99.90;;;;;;5050013;28;20181;-51
2023/07/28 04:00:25;;;;;;;5.50;2.22;;;17.50;99.90;;;;;;5050040;28;20178;-50
2023/07/28 04:02:51;;;;;;;5.15;2.40;;;17.70;99.90;;;;;;5051249;28;20163;-49
2023/07/28 04:05:16;;;;;;;8.35;2.50;;;17.50;99.90;;;;;;5050357;28;20170;-51
2023/07/28 04:07:42;;;;;;;3.25;2.35;;;17.60;99.90;;;;;;5051466;28;20221;-49
2023/07/28 04:10:08;;;;;;;5.47;2.53;;;17.80;99.90;;;;;;5051190;28;20250;-48
2023/07/28 04:12:33;;;;;;;7.95;2.38;;;17.70;99.90;;;;;;5051087;28;20272;-49
2023/07/28 04:14:59;;;;;;;3.35;2.15;;;17.50;99.90;;;;;;5051324;28;20252;-48
2023/07/28 04:17:25;;;;;;;5.30;2.30;;;17.70;99.90;;;;;;5055212;28;20182;-47
2023/07/28 04:19:50;;;;;;;7.15;2.28;;;17.80;99.90;;;;;;5055369;28;20261;-47
2023/07/28 04:22:21;;;;;;;4.53;1.92;;;17.50;99.90;;;;;;5055575;28;20174;-48
2023/07/28 04:24:47;;;;;;;2.80;1.63;;;17.70;99.90;;;;;;5055592;28;20178;-48
2023/07/28 04:27:13;;;;;;;2.00;1.80;;;17.70;99.90;;;;;;5054703;28;20658;-47
2023/07/28 04:29:39;;;;;;;2.05;1.85;;;17.80;99.90;;;;;;5055095;28;20174;-47
2023/07/28 04:32:05;;;;;;;3.65;1.90;;;17.80;99.90;;;;;;5054433;28;20257;-47
2023/07/28 04:34:33;;;;;;;4.53;1.80;;;17.80;99.90;;;;;;5054928;28;20167;-47
2023/07/28 04:36:59;;;;;;;7.38;1.52;;;17.70;99.90;;;;;;5054960;28;20171;-46
2023/07/28 04:39:24;;;;;;;5.88;2.47;;;17.70;99.90;;;;;;5053897;28;20174;-47
2023/07/28 04:41:50;;;;;;;3.33;1.63;;;17.80;99.90;;;;;;5054716;28;20171;-47
2023/07/28 04:44:17;;;;;;;6.18;2.10;;;17.80;99.90;;;;;;5055389;28;20178;-47
2023/07/28 04:46:42;;;;;;;2.42;2.00;;;17.80;99.90;;;;;;5053435;28;20619;-47
2023/07/28 04:49:08;;;;;;;5.38;1.75;;;17.90;99.90;;;;;;5054840;28;20189;-47
2023/07/28 04:51:34;;;;;;;1.65;1.50;;;17.90;99.90;;;;;;5054512;28;20256;-47
2023/07/28 04:53:59;;;;;;;3.17;1.98;;;17.90;99.90;;;;;;5054546;28;20194;-47
2023/07/28 04:56:25;;;;;;;3.10;1.70;;;17.60;99.90;;;;;;5054392;28;20238;-47
2023/07/28 04:58:50;;;;;;;4.85;2.08;;;17.70;99.90;;;;;;5054617;28;20162;-47
2023/07/28 05:01:16;;;;;;;2.22;1.73;;;17.90;99.90;;;;;;5054408;28;20607;-47
2023/07/28 05:03:41;;;;;;;2.72;1.48;;;17.80;99.90;;;;;;5054247;28;20236;-47
2023/07/28 05:06:07;;;;;;;2.58;1.58;;;17.80;99.90;;;;;;5054339;28;20175;-47
2023/07/28 05:08:32;;;;;;;2.78;1.60;;;17.80;99.90;;;;;;5054347;28;20166;-47
2023/07/28 05:10:58;;;;;;;3.10;1.92;;;18.50;99.90;;;;;;5053899;28;20163;-47
2023/07/28 05:13:23;;;;;;;1.75;1.60;;;17.90;99.90;;;;;;5052470;28;20178;-47
2023/07/28 05:15:49;;;;;;;2.38;1.55;;;17.80;99.90;;;;;;5054483;28;20263;-47
2023/07/28 05:18:15;;;;;;;2.60;1.38;;;16.70;99.90;;;;;;5054434;28;20167;-48
2023/07/28 05:20:40;;;;;;;5.32;2.05;;;18.00;99.90;;;;;;5054034;28;20170;-47
2023/07/28 05:23:06;;;;;;;2.75;1.77;;;17.80;99.90;;;;;;5054042;28;20162;-47
2023/07/28 05:25:32;;;;;;;5.63;1.73;;;18.00;99.90;;;;;;5053956;28;20175;-47
2023/07/28 05:27:57;;;;;;;2.45;1.70;;;18.00;99.90;;;;;;5052558;28;20170;-48
2023/07/28 05:30:23;;;;;;;5.82;1.85;;;17.80;99.90;;;;;;5052489;28;20581;-47
2023/07/28 05:32:48;;;;;;;1.90;1.80;;;18.10;99.90;;;;;;5054095;28;20578;-48
2023/07/28 05:35:15;;;;;;;1.70;1.60;;;17.80;99.90;;;;;;5053835;28;20538;-47
2023/07/28 05:37:40;;;;;;;3.90;1.90;;;18.10;99.90;;;;;;5053578;28;20163;-48
2023/07/28 05:40:06;;;;;;;2.25;1.60;;;18.00;99.90;;;;;;5052206;28;20171;-48
2023/07/28 05:42:32;;;;;;;2.00;1.80;;;17.90;99.90;;;;;;5053576;28;20163;-47
2023/07/28 05:44:59;;;;;;;2.17;1.98;;;18.20;99.90;;;;;;5052258;28;20516;-47
2023/07/28 05:47:24;;;;;;;2.15;1.95;;;18.10;99.90;;;;;;5053537;28;20212;-47
2023/07/28 05:49:53;;;;;;;2.25;1.88;;;18.20;99.90;;;;;;5053749;28;20271;-47
2023/07/28 05:52:19;;;;;;;2.17;1.98;;;18.10;99.90;;;;;;5054080;28;20167;-47
2023/07/28 05:54:44;;;;;;;4.75;2.10;;;17.90;99.90;;;;;;5053775;28;20198;-47
2023/07/28 05:57:10;;;;;;;3.67;2.13;;;18.10;99.90;;;;;;5053630;28;20178;-47
2023/07/28 05:59:36;;;;;;;4.38;2.08;;;18.20;99.90;;;;;;5053285;28;20189;-47
2023/07/28 06:02:02;;;;;;;6.38;2.22;;;19.00;99.90;;;;;;5053316;28;20178;-47
2023/07/28 06:04:27;;;;;;;4.20;2.20;;;18.10;99.90;;;;;;5053297;28;20233;-47
2023/07/28 06:06:53;;;;;;;2.40;2.20;;;18.00;99.90;;;;;;5053155;28;20560;-48
2023/07/28 06:09:18;;;;;;;7.93;2.58;;;18.00;99.90;;;;;;5053404;28;20542;-47
2023/07/28 06:11:44;;;;;;;2.83;2.30;;;18.10;99.90;;;;;;5052922;28;20712;-47
2023/07/28 06:14:10;;;;;;;4.10;2.72;;;18.30;99.90;;;;;;5053035;28;20170;-47
2023/07/28 06:16:35;;;;;;;3.92;2.42;;;18.10;99.90;;;;;;5053137;28;20221;-48
2023/07/28 06:19:01;;;;;;;6.50;2.45;;;18.20;99.90;;;;;;5052972;28;20626;-48
2023/07/28 06:21:26;;;;;;;2.58;2.35;;;18.00;99.90;;;;;;5053204;28;20179;-48
2023/07/28 06:23:52;;;;;;;6.78;3.30;;;18.20;99.90;;;;;;5053044;28;20167;-47
2023/07/28 06:26:18;;;;;;;5.35;2.90;;;18.20;99.90;;;;;;5053206;28;20653;-48
2023/07/28 06:28:43;;;;;;;5.38;3.10;;;18.30;99.90;;;;;;5051564;28;20652;-48
2023/07/28 06:31:10;;;;;;;6.90;2.70;;;18.20;99.90;;;;;;5052604;28;20550;-47
2023/07/28 06:33:36;;;;;;;6.65;3.60;;;18.00;99.90;;;;;;5052904;28;20526;-48
2023/07/28 06:36:02;;;;;;;7.55;3.10;;;18.20;99.90;;;;;;5052534;28;20205;-47
2023/07/28 06:38:28;;;;;;;7.65;3.35;;;18.20;99.90;;;;;;5052371;28;20206;-47
2023/07/28 06:40:55;;;;;;;4.32;3.60;;;18.30;99.90;;;;;;5052472;28;20175;-49
2023/07/28 06:43:20;;;;;;;6.85;3.95;;;18.50;99.90;;;;;;5052660;28;20228;-47
2023/07/28 06:45:46;;;;;;;5.60;3.85;;;18.30;99.90;;;;;;5052809;28;20526;-47
2023/07/28 06:48:12;;;;;;;4.85;4.20;;;18.20;99.90;;;;;;5052375;28;20177;-45
2023/07/28 06:50:37;;;;;;;9.77;4.60;;;18.20;99.90;;;;;;5052251;28;20649;-45
2023/07/28 06:53:03;;;;;;;5.95;5.43;;;18.40;99.90;;;;;;5051009;28;20177;-45
2023/07/28 06:55:28;;;;;;;7.35;5.30;;;18.30;99.90;;;;;;5052092;28;20202;-45
2023/07/28 06:57:54;;;;;;;8.77;4.38;;;18.40;99.90;;;;;;5052104;28;20534;-45
2023/07/28 07:00:19;;;;;;;5.45;4.82;;;18.30;99.90;;;;;;5052096;28;20520;-45
2023/07/28 07:02:45;;;;;;;7.70;5.03;;;18.50;99.90;;;;;;5052396;28;20617;-46
2023/07/28 07:05:11;;;;;;;9.85;4.93;;;18.50;99.90;;;;;;5052093;28;20642;-45
2023/07/28 07:07:37;;;;;;;4.75;4.35;;;18.70;99.90;;;;;;5052257;28;20173;-45
2023/07/28 07:10:02;;;;;;;6.60;4.70;;;18.50;99.90;;;;;;5051917;28;20159;-45
2023/07/28 07:12:28;;;;;;;7.20;4.63;;;18.50;99.90;;;;;;5051769;28;20298;-46
2023/07/28 07:14:54;;;;;;;8.50;5.00;;;18.60;99.90;;;;;;5052062;28;20214;-45
2023/07/28 07:17:20;;;;;;;7.43;4.20;;;18.50;99.90;;;;;;5051929;28;20588;-45
2023/07/28 07:19:46;;;;;;;5.93;4.57;;;18.50;99.90;;;;;;5052222;28;20163;-50
2023/07/28 07:22:11;;;;;;;7.20;4.57;;;18.80;99.90;;;;;;5051753;28;20166;-52
2023/07/28 07:24:37;;;;;;;7.53;3.90;;;18.70;99.90;;;;;;5051730;28;20661;-52
2023/07/28 07:27:03;;;;;;;7.85;4.93;;;18.90;99.90;;;;;;5051899;28;20224;-46
2023/07/28 07:29:28;;;;;;;9.85;4.63;;;18.80;99.90;;;;;;5051865;28;20166;-48
2023/07/28 07:31:55;;;;;;;5.63;4.70;;;18.70;99.90;;;;;;5051691;28;20530;-47
2023/07/28 07:34:23;;;;;;;7.82;5.00;;;18.80;99.90;;;;;;5051766;28;20166;-48
2023/07/28 07:36:49;;;;;;;5.38;4.22;;;18.70;99.90;;;;;;5051899;28;20569;-47
2023/07/28 07:39:14;;;;;;;7.30;4.20;;;16.20;99.90;;;;;;5051926;28;20232;-48
2023/07/28 07:41:40;;;;;;;7.70;4.55;;;18.90;99.90;;;;;;5051440;28;20630;-48
2023/07/28 07:44:06;;;;;;;7.25;4.40;;;18.80;99.90;;;;;;5050641;28;20159;-47
2023/07/28 07:46:32;;;;;;;4.03;3.63;;;18.70;99.90;;;;;;5049854;28;20174;-48
2023/07/28 07:48:58;;;;;;;5.13;3.90;;;18.80;99.90;;;;;;5051295;28;20166;-47
2023/07/28 07:51:23;;;;;;;4.45;4.05;;;18.90;99.90;;;;;;5050538;28;20171;-47
2023/07/28 07:53:49;;;;;;;5.70;4.50;;;18.80;99.90;;;;;;5051409;28;20159;-47
2023/07/28 07:56:15;;;;;;;4.18;3.55;;;18.90;99.90;;;;;;5051373;28;20628;-48
2023/07/28 07:58:40;;;;;;;3.78;3.47;;;18.90;99.90;;;;;;5050830;28;20169;-47
2023/07/28 08:01:06;;;;;;;3.60;3.30;;;19.00;99.90;;;;;;5050981;28;20198;-52
2023/07/28 08:03:32;;;;;;;7.63;3.53;;;19.10;99.90;;;;;;5051376;28;20167;-52
2023/07/28 08:05:57;;;;;;;5.18;3.75;;;19.30;99.90;;;;;;5050989;28;20168;-51
2023/07/28 08:08:23;;;;;;;4.50;3.25;;;19.30;99.90;;;;;;5051171;28;20193;-50
2023/07/28 08:10:50;;;;;;;5.72;3.88;;;19.50;99.90;;;;;;5050988;28;20177;-48
2023/07/28 08:13:16;;;;;;;7.60;3.42;;;19.70;99.90;;;;;;5031110;28;20176;-51
2023/07/28 08:15:45;;;;;;;3.22;2.92;;;19.70;99.90;;;;;;5031054;28;20264;-47
2023/07/28 08:18:14;;;;;;;3.47;3.17;;;19.70;99.90;;;;;;5031051;28;20213;-47
2023/07/28 08:20:40;;;;;;;3.33;3.03;;;19.80;99.90;;;;;;5031028;28;20226;-47
2023/07/28 08:23:06;;;;;;;3.17;2.88;;;19.70;99.90;;;;;;5029710;28;20258;-47
2023/07/28 08:25:34;;;;;;;4.63;2.92;;;20.00;99.90;;;;;;5031156;28;20240;-47
2023/07/28 08:28:00;;;;;;;3.45;2.90;;;20.00;99.90;;;;;;5030682;28;20160;-47
2023/07/28 08:30:25;;;;;;;3.00;2.80;;;20.00;99.90;;;;;;5031146;28;20176;-47
2023/07/28 08:32:51;;;;;;;3.28;2.97;;;20.10;99.90;;;;;;5030978;28;20559;-47
2023/07/28 08:35:16;;;;;;;5.95;3.08;;;20.10;99.90;;;;;;5031430;28;20671;-47
2023/07/28 08:37:42;;;;;;;3.20;2.42;;;20.40;99.90;;;;;;5030795;28;20575;-47
2023/07/28 08:40:08;;;;;;;2.55;2.35;;;20.40;99.90;;;;;;5030819;28;20166;-47
2023/07/28 08:42:39;;;;;;;3.03;2.50;;;20.60;99.90;;;;;;5030782;28;20250;-47
2023/07/28 08:45:05;;;;;;;4.80;2.05;;;20.90;99.90;;;;;;5029504;28;20168;-47
2023/07/28 08:47:32;;;;;;;4.20;2.05;;;21.10;99.90;;;;;;5030741;28;20533;-47
2023/07/28 08:49:58;;;;;;;2.47;2.20;;;21.10;99.90;;;;;;5030712;28;20255;-47
2023/07/28 08:52:23;;;;;;;1.90;1.80;;;21.30;99.90;;;;;;5030758;28;20599;-47
2023/07/28 08:54:50;;;;;;;3.80;1.80;;;21.30;99.90;;;;;;5030590;28;20167;-47
2023/07/28 08:57:15;;;;;;;4.55;1.92;;;21.30;99.90;;;;;;5030785;28;20211;-47
2023/07/28 08:59:47;;;;;;;3.55;1.98;;;21.40;99.90;;;;;;5030578;28;20195;-47
2023/07/28 09:02:15;;;;;;;2.10;2.00;;;21.40;99.90;;;;;;5033159;28;20179;-47
2023/07/28 09:04:41;;;;;;;2.38;2.10;;;21.50;99.90;;;;;;5034404;28;20170;-47
2023/07/28 09:07:07;;;;;;;2.28;2.00;;;21.70;99.90;;;;;;5034030;28;20167;-47
2023/07/28 09:09:33;;;;;;;2.25;2.05;;;21.80;99.90;;;;;;5034418;28;20175;-47
2023/07/28 09:12:00;;;;;;;4.95;2.42;;;21.80;99.90;;;;;;5043076;28;20230;-47
2023/07/28 09:14:25;;;;;;;1.77;1.67;;;21.70;99.90;;;;;;5054209;28;20174;-47
2023/07/28 09:16:52;;;;;;;3.38;2.13;;;21.70;99.90;;;;;;5053803;28;20674;-47
2023/07/28 09:19:19;;;;;;;3.90;2.08;;;21.90;99.90;;;;;;5054189;28;20665;-47
2023/07/28 09:21:46;;;;;;;3.67;2.00;;;22.30;99.90;;;;;;5054090;28;20209;-47
2023/07/28 09:24:12;;;;;;;2.83;1.80;;;22.40;99.90;;;;;;5053798;28;20245;-47
2023/07/28 09:26:41;;;;;;;3.35;1.75;;;22.40;99.90;;;;;;5053709;28;20166;-47
2023/07/28 09:29:18;;;;;;;5.13;1.58;;;22.40;99.90;;;;;;5053540;28;20166;-47
2023/07/28 09:31:48;;;;;;;3.75;1.80;;;22.80;99.90;;;;;;5053532;28;20248;-47
2023/07/28 09:34:25;;;;;;;2.45;1.40;;;22.80;99.90;;;;;;5054026;28;20580;-47
2023/07/28 09:36:55;;;;;;;1.30;1.20;;;22.60;99.90;;;;;;5053397;28;20696;-47
2023/07/28 09:39:21;;;;;;;2.88;1.13;;;22.40;99.90;;;;;;5053184;28;20245;-48
2023/07/28 09:41:47;;;;;;;1.15;1.05;;;22.20;99.90;;;;;;5053792;28;20249;-48
2023/07/28 09:44:13;;;;;;;1.17;1.10;;;22.20;99.90;;;;;;5053350;28;20634;-48
2023/07/28 09:46:51;;;;;;;1.77;1.40;;;22.10;99.90;;;;;;5053621;28;20217;-48
2023/07/28 09:49:40;;;;;;;1.38;1.25;;;22.30;99.90;;;;;;5053699;28;20572;-48
2023/07/28 09:52:09;;;;;;;1.67;1.27;;;20.50;99.90;;;;;;5052918;28;20264;-47
2023/07/28 09:54:40;;;;;;;2.35;1.48;;;22.80;99.90;;;;;;5052844;28;20637;-48
2023/07/28 09:57:13;;;;;;;1.25;1.15;;;22.50;99.90;;;;;;5053095;28;20174;-48
2023/07/28 09:59:40;;;;;;;1.70;1.02;;;22.10;99.90;;;;;;5053335;28;20265;-48
2023/07/28 10:02:05;;;;;;;1.52;1.20;;;22.10;99.90;;;;;;5053091;28;20228;-50
2023/07/28 10:04:32;;;;;;;1.10;1.02;;;22.10;99.90;;;;;;5053014;28;20253;-47
2023/07/28 10:06:59;;;;;;;1.30;1.20;;;22.20;99.90;;;;;;5053068;28;20164;-51
2023/07/28 10:09:26;;;;;;;1.98;1.23;;;22.30;99.90;;;;;;5052564;28;20166;-48
2023/07/28 10:11:52;;;;;;;1.98;1.00;;;22.30;99.90;;;;;;5052578;28;20218;-47
2023/07/28 10:14:34;;;;;;;1.20;1.10;;;22.10;99.90;;;;;;5052293;28;20695;-48
2023/07/28 10:17:01;;;;;;;2.15;1.05;;;21.90;99.90;;;;;;5052721;28;20191;-50
2023/07/28 10:19:28;;;;;;;2.83;1.20;;;22.20;99.90;;;;;;5052953;28;20166;-49
2023/07/28 10:22:08;;;;;;;3.95;1.33;;;22.60;99.90;;;;;;5052638;28;20495;-51
2023/07/28 10:24:52;;;;;;;2.80;1.10;;;22.80;99.90;;;;;;5052348;28;20170;-50
2023/07/28 10:27:31;;;;;;;3.50;0.88;;;22.90;99.90;;;;;;5052845;28;20664;-48
2023/07/28 10:30:01;;;;;;;4.88;1.70;;;23.20;99.90;;;;;;5052427;28;20637;-47
2023/07/28 10:32:30;;;;;;;1.13;0.85;;;23.30;99.90;;;;;;5051799;28;20189;-47
2023/07/28 10:35:00;;;;;;;2.47;1.13;;;23.00;99.90;;;;;;5055240;28;20713;-47
2023/07/28 10:37:26;;;;;;;1.10;1.00;;;22.90;99.90;;;;;;5061822;28;20209;-50
2023/07/28 10:40:26;;;;;;;1.70;1.02;;;22.90;99.90;;;;;;5057747;28;20205;-48
2023/07/28 10:42:53;;;;;;;1.10;1.00;;;23.10;99.90;;;;;;5043334;28;20545;-53
2023/07/28 10:45:20;;;;;;;1.45;0.88;;;23.60;99.90;;;;;;5051860;28;20538;-48
2023/07/28 10:47:45;;;;;;;1.85;0.93;;;23.80;99.90;;;;;;5051844;28;20554;-52
2023/07/28 10:50:12;;;;;;;1.00;1.00;;;24.00;99.90;;;;;;5051957;28;20169;-47
2023/07/28 10:52:45;;;;;;;0.93;0.90;;;23.60;99.90;;;;;;5051037;28;20249;-48
2023/07/28 10:55:21;;;;;;;2.72;0.80;;;23.40;99.90;;;;;;5051516;28;20207;-52
2023/07/28 10:57:48;;;;;;;1.00;0.90;;;23.40;99.90;;;;;;5052115;28;20166;-52
2023/07/28 11:00:17;;;;;;;0.95;0.93;;;23.90;99.90;;;;;;5051697;28;20634;-52
2023/07/28 11:02:51;;;;;;;1.15;1.05;;;24.00;99.90;;;;;;5051402;28;20634;-51
2023/07/28 11:05:29;;;;;;;2.00;0.80;;;24.10;99.90;;;;;;5051608;28;20303;-49
2023/07/28 11:07:59;;;;;;;1.10;1.00;;;24.00;99.90;;;;;;5050623;28;20178;-53
2023/07/28 11:10:28;;;;;;;1.13;0.88;;;23.90;99.90;;;;;;5051048;28;20253;-53
2023/07/28 11:12:53;;;;;;;0.90;0.90;;;23.80;99.90;;;;;;5050779;28;20682;-53
2023/07/28 11:15:19;;;;;;;1.38;0.82;;;23.80;99.90;;;;;;5050948;28;20212;-52
2023/07/28 11:17:49;;;;;;;1.35;0.93;;;23.90;99.90;;;;;;5051527;28;20170;-52
2023/07/28 11:20:23;;;;;;;0.90;0.90;;;23.70;99.90;;;;;;5050222;28;20170;-52
2023/07/28 11:22:54;;;;;;;1.65;0.80;;;23.70;99.90;;;;;;5050563;28;20162;-52
2023/07/28 11:25:21;;;;;;;0.90;0.90;;;23.60;99.90;;;;;;5050944;28;20648;-53
2023/07/28 11:27:47;;;;;;;0.90;0.90;;;23.50;99.90;;;;;;5050851;28;20257;-52
2023/07/28 11:30:14;;;;;;;1.38;0.70;;;23.50;99.90;;;;;;5050678;28;20202;-52
2023/07/28 11:32:43;;;;;;;1.27;1.00;;;23.70;99.90;;;;;;5050574;28;20166;-52
2023/07/28 11:35:10;;;;;;;1.08;0.68;;;24.10;99.90;;;;;;5049324;28;20214;-52
2023/07/28 11:37:37;;;;;;;0.80;0.80;;;24.00;99.90;;;;;;5050713;28;20209;-52
2023/07/28 11:40:10;;;;;;;0.90;0.90;;;24.00;99.90;;;;;;5051014;28;20576;-52
2023/07/28 11:42:38;;;;;;;0.98;0.77;;;24.00;99.90;;;;;;5050800;28;20404;-52
2023/07/28 11:45:04;;;;;;;0.90;0.90;;;23.90;99.90;;;;;;5050731;28;20649;-52
2023/07/28 11:47:30;;;;;;;0.93;0.90;;;24.10;99.90;;;;;;5050087;28;20188;-52
2023/07/28 11:49:58;;;;;;;1.10;1.00;;;24.10;99.90;;;;;;5050126;28;20174;-52
2023/07/28 11:52:28;;;;;;;3.63;1.10;;;24.40;99.90;;;;;;5050812;28;20181;-51
2023/07/28 11:54:54;;;;;;;1.17;0.82;;;24.10;99.90;;;;;;5050524;28;20166;-48
2023/07/28 11:57:20;;;;;;;0.88;0.88;;;23.80;99.90;;;;;;5050590;28;20174;-47
2023/07/28 11:59:46;;;;;;;1.10;1.00;;;23.90;99.90;;;;;;5051036;28;20162;-48
2023/07/28 12:02:11;;;;;;;1.02;1.00;;;23.70;99.90;;;;;;5049096;28;20177;-48
2023/07/28 12:04:39;;;;;;;1.98;1.05;;;23.80;99.90;;;;;;5050292;28;20193;-48
2023/07/28 12:07:14;;;;;;;1.23;1.13;;;24.00;99.90;;;;;;5050437;28;20166;-48
2023/07/28 12:09:45;;;;;;;2.22;1.20;;;24.00;99.90;;;;;;5050648;28;20184;-48
2023/07/28 12:12:12;;;;;;;2.25;1.05;;;24.00;99.90;;;;;;5049712;28;20558;-49
2023/07/28 12:14:38;;;;;;;1.00;1.00;;;23.90;99.90;;;;;;5050575;28;20171;-48
2023/07/28 12:17:11;;;;;;;1.17;1.10;;;23.90;99.90;;;;;;5050586;28;20206;-45
2023/07/28 12:19:41;;;;;;;3.45;1.10;;;24.00;99.90;;;;;;5050035;28;20163;-45
2023/07/28 12:22:07;;;;;;;2.40;1.10;;;24.20;99.90;;;;;;5050201;28;20537;-48
2023/07/28 12:24:33;;;;;;;0.90;0.90;;;24.30;99.90;;;;;;5049017;28;20174;-48
2023/07/28 12:26:58;;;;;;;0.80;0.80;;;24.10;99.90;;;;;;5050148;28;20174;-48
2023/07/28 12:29:24;;;;;;;1.27;1.02;;;23.80;99.90;;;;;;5050453;28;20181;-47
2023/07/28 12:31:49;;;;;;;1.00;1.00;;;23.70;99.90;;;;;;5050165;28;20237;-47
2023/07/28 12:34:15;;;;;;;1.30;1.20;;;23.60;99.90;;;;;;5050274;28;20201;-48
2023/07/28 12:36:41;;;;;;;3.03;1.30;;;23.60;99.90;;;;;;5051798;28;20286;-47
2023/07/28 12:39:07;;;;;;;1.85;1.23;;;23.30;99.90;;;;;;5053990;28;20579;-48
2023/07/28 12:41:33;;;;;;;1.00;1.00;;;23.10;99.90;;;;;;5053955;28;20190;-47
2023/07/28 12:43:58;;;;;;;1.42;1.33;;;23.10;99.90;;;;;;5053717;28;20170;-47
2023/07/28 12:46:24;;;;;;;0.93;0.93;;;23.50;99.90;;;;;;5053773;28;20162;-48